Time,TemperatureF,DewpointF,PressureIn,WindDirection,WindDirectionDegrees,WindSpeedMPH,WindSpeedGustMPH,Humidity,HourlyPrecipIn,Conditions,Clouds,dailyrainin,SoftwareType,DateUTC
2013-02-05 00:00:00,42.2,23.4,30.13,SSW,201,2.0,6.0,47,0.00,,,0.00,Wunderground v.1.15,2013-02-05 05:00:00,
2013-02-05 00:10:00,42.1,23.8,30.13,South,189,2.0,5.0,48,0.00,,,0.00,Wunderground v.1.15,2013-02-05 05:10:00,
2013-02-05 00:15:00,42.1,23.3,30.13,South,180,3.0,6.0,47,0.00,,,0.00,Wunderground v.1.15,2013-02-05 05:15:00,
2013-02-05 00:20:00,42.0,23.7,30.12,South,181,4.0,4.0,48,0.00,,,0.00,Wunderground v.1.15,2013-02-05 05:20:00,
2013-02-05 00:25:00,42.0,23.7,30.12,South,169,3.0,6.0,48,0.00,,,0.00,Wunderground v.1.15,2013-02-05 05:25:00,
2013-02-05 00:35:00,41.3,24.0,30.12,South,178,2.0,6.0,50,0.00,,,0.00,Wunderground v.1.15,2013-02-05 05:35:00,
2013-02-05 00:40:00,41.1,23.4,30.12,South,169,3.0,6.0,49,0.00,,,0.00,Wunderground v.1.15,2013-02-05 05:40:00,
2013-02-05 00:45:00,41.0,24.2,30.11,South,173,3.0,6.0,51,0.00,,,0.00,Wunderground v.1.15,2013-02-05 05:45:00,
2013-02-05 00:55:00,40.1,23.9,30.11,South,188,1.0,6.0,52,0.00,,,0.00,Wunderground v.1.15,2013-02-05 05:55:00,
2013-02-05 01:00:00,40.3,23.6,30.11,South,173,2.0,6.0,51,0.00,,,0.00,Wunderground v.1.15,2013-02-05 06:00:00,
2013-02-05 01:05:00,40.5,23.3,30.10,South,176,3.0,6.0,50,0.00,,,0.00,Wunderground v.1.15,2013-02-05 06:05:00,
2013-02-05 01:15:00,40.2,24.0,30.10,South,174,3.0,6.0,52,0.00,,,0.00,Wunderground v.1.15,2013-02-05 06:15:00,
2013-02-05 01:20:00,39.9,23.7,30.10,South,175,2.0,6.0,52,0.00,,,0.00,Wunderground v.1.15,2013-02-05 06:20:00,
2013-02-05 01:25:00,39.9,23.7,30.10,South,182,2.0,6.0,52,0.00,,,0.00,Wunderground v.1.15,2013-02-05 06:25:00,
2013-02-05 01:30:00,39.9,23.2,30.10,South,179,4.0,6.0,51,0.00,,,0.00,Wunderground v.1.15,2013-02-05 06:30:00,
2013-02-05 01:35:00,39.9,23.7,30.10,South,176,4.0,6.0,52,0.00,,,0.00,Wunderground v.1.15,2013-02-05 06:35:00,
2013-02-05 01:45:00,40.2,23.5,30.10,South,186,2.0,6.0,51,0.00,,,0.00,Wunderground v.1.15,2013-02-05 06:45:00,
2013-02-05 01:50:00,40.2,23.5,30.10,South,182,2.0,2.0,51,0.00,,,0.00,Wunderground v.1.15,2013-02-05 06:50:00,
2013-02-05 01:55:00,40.2,23.5,30.10,South,182,1.0,6.0,51,0.00,,,0.00,Wunderground v.1.15,2013-02-05 06:55:00,
2013-02-05 02:00:00,39.8,23.6,30.10,South,182,0.0,6.0,52,0.00,,,0.00,Wunderground v.1.15,2013-02-05 07:00:00,
2013-02-05 02:05:00,39.7,23.5,30.10,South,176,0.0,6.0,52,0.00,,,0.00,Wunderground v.1.15,2013-02-05 07:05:00,
2013-02-05 02:15:00,39.9,23.7,30.10,South,177,0.0,1.0,52,0.00,,,0.00,Wunderground v.1.15,2013-02-05 07:15:00,
2013-02-05 02:20:00,40.1,22.9,30.10,South,177,0.0,1.0,50,0.00,,,0.00,Wunderground v.1.15,2013-02-05 07:20:00,
2013-02-05 02:25:00,40.2,23.0,30.10,South,178,0.0,1.0,50,0.00,,,0.00,Wunderground v.1.15,2013-02-05 07:25:00,
2013-02-05 02:30:00,40.3,23.1,30.09,South,178,0.0,1.0,50,0.00,,,0.00,Wunderground v.1.15,2013-02-05 07:30:00,
2013-02-05 02:35:00,40.2,23.0,30.09,South,178,0.0,1.0,50,0.00,,,0.00,Wunderground v.1.15,2013-02-05 07:35:00,
2013-02-05 02:45:00,39.6,22.9,30.09,South,178,0.0,1.0,51,0.00,,,0.00,Wunderground v.1.15,2013-02-05 07:45:00,
2013-02-05 02:50:00,39.4,23.2,30.10,South,178,0.0,1.0,52,0.00,,,0.00,Wunderground v.1.15,2013-02-05 07:50:00,
2013-02-05 02:55:00,38.8,23.6,30.09,South,178,0.0,1.0,54,0.00,,,0.00,Wunderground v.1.15,2013-02-05 07:55:00,
2013-02-05 03:00:00,38.4,23.2,30.09,South,178,0.0,1.0,54,0.00,,,0.00,Wunderground v.1.15,2013-02-05 08:00:00,
2013-02-05 03:05:00,38.2,23.0,30.09,South,178,0.0,1.0,54,0.00,,,0.00,Wunderground v.1.15,2013-02-05 08:05:00,
2013-02-05 03:15:00,37.9,23.6,30.09,South,178,0.0,0.0,56,0.00,,,0.00,Wunderground v.1.15,2013-02-05 08:15:00,
2013-02-05 03:20:00,37.8,23.5,30.08,South,178,0.0,0.0,56,0.00,,,0.00,Wunderground v.1.15,2013-02-05 08:20:00,
2013-02-05 03:25:00,37.7,23.8,30.08,South,178,0.0,0.0,57,0.00,,,0.00,Wunderground v.1.15,2013-02-05 08:25:00,
2013-02-05 03:35:00,37.7,23.4,30.08,South,178,0.0,0.0,56,0.00,,,0.00,Wunderground v.1.15,2013-02-05 08:35:00,
2013-02-05 03:40:00,37.6,23.3,30.08,South,178,0.0,0.0,56,0.00,,,0.00,Wunderground v.1.15,2013-02-05 08:40:00,
2013-02-05 03:45:00,37.4,24.0,30.09,South,178,0.0,0.0,58,0.00,,,0.00,Wunderground v.1.15,2013-02-05 08:45:00,
2013-02-05 03:50:00,37.1,23.3,30.08,South,178,0.0,0.0,57,0.00,,,0.00,Wunderground v.1.15,2013-02-05 08:50:00,
2013-02-05 03:55:00,37.3,23.9,30.08,South,178,0.0,0.0,58,0.00,,,0.00,Wunderground v.1.15,2013-02-05 08:55:00,
2013-02-05 04:05:00,37.5,24.1,30.08,South,178,0.0,0.0,58,0.00,,,0.00,Wunderground v.1.15,2013-02-05 09:05:00,
2013-02-05 04:15:00,38.3,24.0,30.08,South,178,0.0,2.0,56,0.00,,,0.00,Wunderground v.1.15,2013-02-05 09:15:00,
2013-02-05 04:20:00,38.4,24.1,30.08,South,178,0.0,2.0,56,0.00,,,0.00,Wunderground v.1.15,2013-02-05 09:20:00,
2013-02-05 04:25:00,38.4,24.9,30.08,South,178,0.0,2.0,58,0.00,,,0.00,Wunderground v.1.15,2013-02-05 09:25:00,
2013-02-05 04:30:00,38.4,24.1,30.08,South,178,0.0,2.0,56,0.00,,,0.00,Wunderground v.1.15,2013-02-05 09:30:00,
2013-02-05 04:40:00,38.6,24.2,30.08,ENE,71,0.0,2.0,56,0.00,,,0.00,Wunderground v.1.15,2013-02-05 09:40:00,
2013-02-05 04:45:00,38.8,24.4,30.08,ENE,71,0.0,2.0,56,0.00,,,0.00,Wunderground v.1.15,2013-02-05 09:45:00,
2013-02-05 04:50:00,39.1,24.3,30.08,ENE,71,0.0,2.0,55,0.00,,,0.00,Wunderground v.1.15,2013-02-05 09:50:00,
2013-02-05 04:55:00,39.3,24.5,30.08,ENE,71,0.0,2.0,55,0.00,,,0.00,Wunderground v.1.15,2013-02-05 09:55:00,
2013-02-05 05:00:00,39.4,23.7,30.08,ENE,71,0.0,2.0,53,0.00,,,0.00,Wunderground v.1.15,2013-02-05 10:00:00,
2013-02-05 05:10:00,39.3,25.3,30.08,ENE,69,0.0,0.0,57,0.00,,,0.00,Wunderground v.1.15,2013-02-05 10:10:00,
2013-02-05 05:15:00,38.8,24.4,30.09,NE,36,0.0,3.0,56,0.00,,,0.00,Wunderground v.1.15,2013-02-05 10:15:00,
2013-02-05 05:20:00,38.3,25.2,30.09,NE,36,0.0,3.0,59,0.00,,,0.00,Wunderground v.1.15,2013-02-05 10:20:00,
2013-02-05 05:25:00,38.1,25.0,30.08,NE,36,0.0,3.0,59,0.00,,,0.00,Wunderground v.1.15,2013-02-05 10:25:00,
2013-02-05 05:35:00,38.0,24.5,30.08,NE,36,0.0,3.0,58,0.00,,,0.00,Wunderground v.1.15,2013-02-05 10:35:00,
2013-02-05 05:40:00,38.3,24.4,30.08,NE,36,0.0,3.0,57,0.00,,,0.00,Wunderground v.1.15,2013-02-05 10:40:00,
2013-02-05 05:45:00,38.5,23.7,30.08,NE,36,0.0,3.0,55,0.00,,,0.00,Wunderground v.1.15,2013-02-05 10:45:00,
2013-02-05 05:50:00,38.7,24.8,30.08,NE,36,0.0,3.0,57,0.00,,,0.00,Wunderground v.1.15,2013-02-05 10:50:00,
2013-02-05 05:55:00,38.7,24.3,30.08,NE,36,0.0,3.0,56,0.00,,,0.00,Wunderground v.1.15,2013-02-05 10:55:00,
2013-02-05 06:00:00,38.9,23.7,30.08,North,355,1.0,4.0,54,0.00,,,0.00,Wunderground v.1.15,2013-02-05 11:00:00,
2013-02-05 06:05:00,39.1,24.7,30.08,North,355,1.0,4.0,56,0.00,,,0.00,Wunderground v.1.15,2013-02-05 11:05:00,
2013-02-05 06:15:00,39.2,24.4,30.09,North,355,2.0,5.0,55,0.00,,,0.00,Wunderground v.1.15,2013-02-05 11:15:00,
2013-02-05 06:20:00,39.2,24.8,30.09,North,355,1.0,1.0,56,0.00,,,0.00,Wunderground v.1.15,2013-02-05 11:20:00,
2013-02-05 06:25:00,39.2,24.4,30.09,North,355,0.0,5.0,55,0.00,,,0.00,Wunderground v.1.15,2013-02-05 11:25:00,
2013-02-05 06:30:00,39.3,24.5,30.09,North,355,0.0,5.0,55,0.00,,,0.00,Wunderground v.1.15,2013-02-05 11:30:00,
2013-02-05 06:35:00,39.3,24.5,30.08,North,355,0.0,5.0,55,0.00,,,0.00,Wunderground v.1.15,2013-02-05 11:35:00,
2013-02-05 06:45:00,39.6,24.3,30.09,NNW,342,2.0,5.0,54,0.00,,,0.00,Wunderground v.1.15,2013-02-05 11:45:00,
2013-02-05 06:55:00,39.7,24.8,30.08,NNW,342,0.0,5.0,55,0.00,,,0.00,Wunderground v.1.15,2013-02-05 11:55:00,
2013-02-05 07:00:00,39.7,24.8,30.08,NNW,342,0.0,5.0,55,0.00,,,0.00,Wunderground v.1.15,2013-02-05 12:00:00,
2013-02-05 07:05:00,39.8,24.5,30.09,NNW,342,1.0,5.0,54,0.00,,,0.00,Wunderground v.1.15,2013-02-05 12:05:00,
2013-02-05 07:15:00,39.8,24.9,30.09,NNW,340,1.0,5.0,55,0.00,,,0.00,Wunderground v.1.15,2013-02-05 12:15:00,
2013-02-05 07:25:00,39.8,25.4,30.10,NNW,340,0.0,5.0,56,0.00,,,0.00,Wunderground v.1.15,2013-02-05 12:25:00,
2013-02-05 07:30:00,39.9,25.5,30.10,NNW,340,0.0,5.0,56,0.00,,,0.00,Wunderground v.1.15,2013-02-05 12:30:00,
2013-02-05 07:35:00,39.9,25.9,30.09,NNW,340,0.0,5.0,57,0.00,,,0.00,Wunderground v.1.15,2013-02-05 12:35:00,
2013-02-05 07:45:00,39.5,25.9,30.09,NNW,340,0.0,5.0,58,0.00,,,0.00,Wunderground v.1.15,2013-02-05 12:45:00,
2013-02-05 07:50:00,39.4,25.4,30.10,NNW,340,0.0,5.0,57,0.00,,,0.00,Wunderground v.1.15,2013-02-05 12:50:00,
2013-02-05 07:55:00,39.3,25.7,30.10,NNW,340,0.0,5.0,58,0.00,,,0.00,Wunderground v.1.15,2013-02-05 12:55:00,
2013-02-05 08:00:00,39.4,25.8,30.09,NNW,340,0.0,5.0,58,0.00,,,0.00,Wunderground v.1.15,2013-02-05 13:00:00,
2013-02-05 08:05:00,39.4,26.7,30.10,NNW,340,0.0,5.0,60,0.00,,,0.00,Wunderground v.1.15,2013-02-05 13:05:00,
2013-02-05 08:15:00,39.5,27.2,30.10,NNW,340,0.0,1.0,61,0.00,,,0.00,Wunderground v.1.15,2013-02-05 13:15:00,
2013-02-05 08:20:00,39.6,26.8,30.11,NNW,340,0.0,1.0,60,0.00,,,0.00,Wunderground v.1.15,2013-02-05 13:20:00,
2013-02-05 08:25:00,39.6,27.6,30.11,NNW,340,0.0,1.0,62,0.00,,,0.00,Wunderground v.1.15,2013-02-05 13:25:00,
2013-02-05 08:30:00,39.6,27.2,30.11,NNW,340,0.0,1.0,61,0.00,,,0.00,Wunderground v.1.15,2013-02-05 13:30:00,
2013-02-05 08:35:00,39.7,27.7,30.11,NNW,340,0.0,1.0,62,0.00,,,0.00,Wunderground v.1.15,2013-02-05 13:35:00,
2013-02-05 08:45:00,39.9,28.3,30.10,NNW,340,0.0,1.0,63,0.00,,,0.00,Wunderground v.1.15,2013-02-05 13:45:00,
2013-02-05 08:50:00,39.8,28.2,30.11,NNW,340,0.0,1.0,63,0.00,,,0.00,Wunderground v.1.15,2013-02-05 13:50:00,
2013-02-05 08:55:00,39.7,28.5,30.11,NNW,340,0.0,1.0,64,0.00,,,0.00,Wunderground v.1.15,2013-02-05 13:55:00,
2013-02-05 09:05:00,39.9,29.5,30.11,NNW,340,0.0,1.0,66,0.00,,,0.00,Wunderground v.1.15,2013-02-05 14:05:00,
2013-02-05 09:15:00,40.4,29.9,30.11,NNW,340,0.0,1.0,66,0.00,,,0.00,Wunderground v.1.15,2013-02-05 14:15:00,
2013-02-05 09:25:00,40.9,30.8,30.11,NNW,340,0.0,1.0,67,0.00,,,0.00,Wunderground v.1.15,2013-02-05 14:25:00,
2013-02-05 09:30:00,41.3,30.4,30.11,NNW,340,0.0,1.0,65,0.00,,,0.00,Wunderground v.1.15,2013-02-05 14:30:00,
2013-02-05 09:45:00,42.3,31.4,30.11,NNW,340,1.0,1.0,65,0.00,,,0.00,Wunderground v.1.15,2013-02-05 14:45:00,
2013-02-05 09:55:00,42.2,32.0,30.11,NNW,340,0.0,1.0,67,0.00,,,0.00,Wunderground v.1.15,2013-02-05 14:55:00,
2013-02-05 10:00:00,42.1,32.3,30.10,NNW,340,0.0,1.0,68,0.00,,,0.00,Wunderground v.1.15,2013-02-05 15:00:00,
2013-02-05 10:05:00,42.2,32.8,30.11,NNW,340,0.0,1.0,69,0.00,,,0.00,Wunderground v.1.15,2013-02-05 15:05:00,
2013-02-05 10:15:00,42.9,33.4,30.11,NNW,340,1.0,4.0,69,0.00,,,0.00,Wunderground v.1.15,2013-02-05 15:15:00,
2013-02-05 10:25:00,43.3,33.1,30.11,NNW,348,2.0,5.0,67,0.00,,,0.00,Wunderground v.1.15,2013-02-05 15:25:00,
2013-02-05 10:30:00,43.5,33.6,30.11,North,355,3.0,5.0,68,0.00,,,0.00,Wunderground v.1.15,2013-02-05 15:30:00,
2013-02-05 10:35:00,43.5,33.3,30.12,North,355,4.0,5.0,67,0.00,,,0.00,Wunderground v.1.15,2013-02-05 15:35:00,
2013-02-05 10:40:00,43.4,33.5,30.12,North,355,5.0,5.0,68,0.00,,,0.00,Wunderground v.1.15,2013-02-05 15:40:00,
2013-02-05 10:45:00,43.3,33.8,30.12,North,355,4.0,7.0,69,0.00,,,0.00,Wunderground v.1.15,2013-02-05 15:45:00,
2013-02-05 10:50:00,43.3,33.4,30.12,North,351,4.0,4.0,68,0.00,,,0.00,Wunderground v.1.15,2013-02-05 15:50:00,
2013-02-05 11:00:00,44.1,33.8,30.12,NNW,344,3.0,5.0,67,0.00,,,0.00,Wunderground v.1.15,2013-02-05 16:00:00,
2013-02-05 11:05:00,44.2,33.9,30.12,North,349,3.0,5.0,67,0.00,,,0.00,Wunderground v.1.15,2013-02-05 16:05:00,
2013-02-05 11:15:00,44.6,34.7,30.13,NNW,347,3.0,10.0,68,0.00,,,0.00,Wunderground v.1.15,2013-02-05 16:15:00,
2013-02-05 11:20:00,44.4,34.9,30.13,North,360,5.0,5.0,69,0.00,,,0.00,Wunderground v.1.15,2013-02-05 16:20:00,
2013-02-05 11:25:00,44.5,35.3,30.12,North,355,6.0,6.0,70,0.00,,,0.00,Wunderground v.1.15,2013-02-05 16:25:00,
2013-02-05 11:30:00,44.3,35.1,30.12,NNW,344,5.0,9.0,70,0.00,,,0.00,Wunderground v.1.15,2013-02-05 16:30:00,
2013-02-05 11:40:00,45.1,35.9,30.12,North,350,5.0,9.0,70,0.00,,,0.00,Wunderground v.1.15,2013-02-05 16:40:00,
2013-02-05 11:45:00,45.7,36.1,30.12,North,355,4.0,9.0,69,0.00,,,0.00,Wunderground v.1.15,2013-02-05 16:45:00,
2013-02-05 11:50:00,45.7,36.1,30.12,North,360,3.0,9.0,69,0.00,,,0.00,Wunderground v.1.15,2013-02-05 16:50:00,
2013-02-05 11:55:00,45.7,36.8,30.12,North,349,3.0,9.0,71,0.00,,,0.00,Wunderground v.1.15,2013-02-05 16:55:00,
2013-02-05 12:00:00,45.8,37.3,30.12,North,355,4.0,4.0,72,0.00,,,0.00,Wunderground v.1.15,2013-02-05 17:00:00,
2013-02-05 12:05:00,46.5,38.3,30.12,NNW,334,3.0,4.0,73,0.00,,,0.00,Wunderground v.1.15,2013-02-05 17:05:00,
2013-02-05 12:15:00,46.1,38.3,30.11,North,5,2.0,8.0,74,0.00,,,0.00,Wunderground v.1.15,2013-02-05 17:15:00,
2013-02-05 12:25:00,47.4,38.5,30.10,NNW,342,1.0,8.0,71,0.00,,,0.00,Wunderground v.1.15,2013-02-05 17:25:00,
2013-02-05 12:30:00,47.5,38.9,30.10,North,349,2.0,2.0,72,0.00,,,0.00,Wunderground v.1.15,2013-02-05 17:30:00,
2013-02-05 12:40:00,46.8,38.2,30.09,NNW,345,2.0,8.0,72,0.00,,,0.00,Wunderground v.1.15,2013-02-05 17:40:00,
2013-02-05 12:45:00,47.4,38.5,30.09,North,355,3.0,8.0,71,0.00,,,0.00,Wunderground v.1.15,2013-02-05 17:45:00,
2013-02-05 12:50:00,47.9,38.2,30.09,NW,323,2.0,2.0,69,0.00,,,0.00,Wunderground v.1.15,2013-02-05 17:50:00,
2013-02-05 12:55:00,48.3,39.0,30.08,North,355,2.0,8.0,70,0.00,,,0.00,Wunderground v.1.15,2013-02-05 17:55:00,
2013-02-05 13:05:00,49.3,38.8,30.08,NNW,343,1.0,1.0,67,0.00,,,0.00,Wunderground v.1.15,2013-02-05 18:05:00,
2013-02-05 13:15:00,49.4,38.9,30.08,NNW,339,2.0,7.0,67,0.00,,,0.00,Wunderground v.1.15,2013-02-05 18:15:00,
2013-02-05 13:20:00,49.4,39.3,30.07,NNW,339,1.0,1.0,68,0.00,,,0.00,Wunderground v.1.15,2013-02-05 18:20:00,
2013-02-05 13:25:00,49.3,39.6,30.07,NNW,340,1.0,2.0,69,0.00,,,0.00,Wunderground v.1.15,2013-02-05 18:25:00,
2013-02-05 13:35:00,50.8,40.6,30.07,North,351,4.0,4.0,68,0.00,,,0.00,Wunderground v.1.15,2013-02-05 18:35:00,
2013-02-05 13:40:00,51.6,39.8,30.07,NNW,346,4.0,7.0,64,0.00,,,0.00,Wunderground v.1.15,2013-02-05 18:40:00,
2013-02-05 13:45:00,51.4,38.8,30.06,North,5,5.0,7.0,62,0.00,,,0.00,Wunderground v.1.15,2013-02-05 18:45:00,
2013-02-05 13:55:00,52.1,39.9,30.06,NNE,13,1.0,7.0,63,0.00,,,0.00,Wunderground v.1.15,2013-02-05 18:55:00,
2013-02-05 14:00:00,52.5,39.4,30.06,North,349,3.0,7.0,61,0.00,,,0.00,Wunderground v.1.15,2013-02-05 19:00:00,
2013-02-05 14:05:00,52.0,40.6,30.06,NNE,19,4.0,7.0,65,0.00,,,0.00,Wunderground v.1.15,2013-02-05 19:05:00,
2013-02-05 14:15:00,52.8,40.5,30.06,North,360,2.0,11.0,63,0.00,,,0.00,Wunderground v.1.15,2013-02-05 19:15:00,
2013-02-05 14:20:00,52.3,39.7,30.06,North,360,2.0,2.0,62,0.00,,,0.00,Wunderground v.1.15,2013-02-05 19:20:00,
2013-02-05 14:30:00,52.2,40.0,30.06,NNW,343,3.0,3.0,63,0.00,,,0.00,Wunderground v.1.15,2013-02-05 19:30:00,
2013-02-05 14:40:00,52.6,39.5,30.06,NNW,342,2.0,2.0,61,0.00,,,0.00,Wunderground v.1.15,2013-02-05 19:40:00,
2013-02-05 14:45:00,52.6,39.1,30.06,North,360,3.0,3.0,60,0.00,,,0.00,Wunderground v.1.15,2013-02-05 19:45:00,
2013-02-05 14:50:00,53.4,41.1,30.06,North,351,3.0,3.0,63,0.00,,,0.00,Wunderground v.1.15,2013-02-05 19:50:00,
2013-02-05 14:55:00,52.8,39.3,30.05,North,355,2.0,6.0,60,0.00,,,0.00,Wunderground v.1.15,2013-02-05 19:55:00,
2013-02-05 15:00:00,53.0,39.5,30.05,North,355,2.0,11.0,60,0.00,,,0.00,Wunderground v.1.15,2013-02-05 20:00:00,
2013-02-05 15:05:00,52.7,38.8,30.06,NW,318,3.0,11.0,59,0.00,,,0.00,Wunderground v.1.15,2013-02-05 20:05:00,
2013-02-05 15:15:00,53.1,38.7,30.05,NNE,24,1.0,9.0,58,0.00,,,0.00,Wunderground v.1.15,2013-02-05 20:15:00,
2013-02-05 15:20:00,53.1,39.1,30.05,NNW,342,0.0,9.0,59,0.00,,,0.00,Wunderground v.1.15,2013-02-05 20:20:00,
2013-02-05 15:25:00,53.5,39.1,30.05,North,355,1.0,9.0,58,0.00,,,0.00,Wunderground v.1.15,2013-02-05 20:25:00,
2013-02-05 15:30:00,53.9,39.0,30.05,North,355,2.0,2.0,57,0.00,,,0.00,Wunderground v.1.15,2013-02-05 20:30:00,
2013-02-05 15:40:00,54.5,38.7,30.05,NNW,341,2.0,9.0,55,0.00,,,0.00,Wunderground v.1.15,2013-02-05 20:40:00,
2013-02-05 15:45:00,54.5,38.7,30.06,North,355,4.0,9.0,55,0.00,,,0.00,Wunderground v.1.15,2013-02-05 20:45:00,
2013-02-05 15:50:00,55.0,39.6,30.06,North,351,3.0,3.0,56,0.00,,,0.00,Wunderground v.1.15,2013-02-05 20:50:00,
2013-02-05 15:55:00,54.8,37.0,30.06,NNW,328,2.0,9.0,51,0.00,,,0.00,Wunderground v.1.15,2013-02-05 20:55:00,
2013-02-05 16:00:00,54.4,39.0,30.06,North,350,2.0,9.0,56,0.00,,,0.00,Wunderground v.1.15,2013-02-05 21:00:00,
2013-02-05 16:05:00,54.6,38.3,30.06,North,350,3.0,9.0,54,0.00,,,0.00,Wunderground v.1.15,2013-02-05 21:05:00,
2013-02-05 16:15:00,54.8,38.5,30.06,NNW,347,3.0,5.0,54,0.00,,,0.00,Wunderground v.1.15,2013-02-05 21:15:00,
2013-02-05 16:20:00,54.4,36.6,30.06,WNW,303,3.0,3.0,51,0.00,,,0.00,Wunderground v.1.15,2013-02-05 21:20:00,
2013-02-05 16:30:00,53.5,37.3,30.06,North,355,1.0,10.0,54,0.00,,,0.00,Wunderground v.1.15,2013-02-05 21:30:00,
2013-02-05 16:35:00,53.3,35.6,30.06,NW,306,1.0,10.0,51,0.00,,,0.00,Wunderground v.1.15,2013-02-05 21:35:00,
2013-02-05 16:40:00,53.0,36.8,30.06,NNW,340,1.0,1.0,54,0.00,,,0.00,Wunderground v.1.15,2013-02-05 21:40:00,
2013-02-05 16:45:00,52.9,37.2,30.06,NNW,342,1.0,10.0,55,0.00,,,0.00,Wunderground v.1.15,2013-02-05 21:45:00,
2013-02-05 16:50:00,52.9,36.7,30.06,NNW,348,1.0,1.0,54,0.00,,,0.00,Wunderground v.1.15,2013-02-05 21:50:00,
2013-02-05 17:00:00,53.4,36.7,30.06,NNW,345,2.0,10.0,53,0.00,,,0.00,Wunderground v.1.15,2013-02-05 22:00:00,
2013-02-05 17:05:00,53.5,35.3,30.06,NNW,334,3.0,10.0,50,0.00,,,0.00,Wunderground v.1.15,2013-02-05 22:05:00,
2013-02-05 17:15:00,52.6,34.0,30.06,North,350,2.0,6.0,49,0.00,,,0.00,Wunderground v.1.15,2013-02-05 22:15:00,
2013-02-05 17:20:00,52.1,34.0,30.06,North,350,1.0,1.0,50,0.00,,,0.00,Wunderground v.1.15,2013-02-05 22:20:00,
2013-02-05 17:25:00,51.5,33.0,30.06,North,355,2.0,2.0,49,0.00,,,0.00,Wunderground v.1.15,2013-02-05 22:25:00,
2013-02-05 17:30:00,50.9,33.4,30.06,North,360,3.0,3.0,51,0.00,,,0.00,Wunderground v.1.15,2013-02-05 22:30:00,
2013-02-05 17:35:00,50.8,33.3,30.06,North,355,3.0,6.0,51,0.00,,,0.00,Wunderground v.1.15,2013-02-05 22:35:00,
2013-02-05 17:45:00,50.5,33.5,30.06,North,355,2.0,6.0,52,0.00,,,0.00,Wunderground v.1.15,2013-02-05 22:45:00,
2013-02-05 17:50:00,50.1,33.6,30.06,North,355,1.0,1.0,53,0.00,,,0.00,Wunderground v.1.15,2013-02-05 22:50:00,
2013-02-05 17:55:00,49.5,33.5,30.06,North,360,1.0,6.0,54,0.00,,,0.00,Wunderground v.1.15,2013-02-05 22:55:00,
2013-02-05 18:05:00,48.2,34.1,30.06,North,355,1.0,6.0,58,0.00,,,0.00,Wunderground v.1.15,2013-02-05 23:05:00,
2013-02-05 18:15:00,47.3,34.5,30.07,NNE,13,2.0,6.0,61,0.00,,,0.00,Wunderground v.1.15,2013-02-05 23:15:00,
2013-02-05 18:20:00,46.9,34.1,30.07,North,360,3.0,6.0,61,0.00,,,0.00,Wunderground v.1.15,2013-02-05 23:20:00,
2013-02-05 18:25:00,46.7,34.4,30.07,North,5,3.0,6.0,62,0.00,,,0.00,Wunderground v.1.15,2013-02-05 23:25:00,
2013-02-05 18:30:00,46.4,34.5,30.07,North,9,3.0,3.0,63,0.00,,,0.00,Wunderground v.1.15,2013-02-05 23:30:00,
2013-02-05 18:35:00,46.2,34.3,30.08,North,9,3.0,6.0,63,0.00,,,0.00,Wunderground v.1.15,2013-02-05 23:35:00,
2013-02-05 18:45:00,45.9,34.4,30.08,North,5,3.0,6.0,64,0.00,,,0.00,Wunderground v.1.15,2013-02-05 23:45:00,
2013-02-05 18:50:00,45.8,34.3,30.08,North,360,2.0,2.0,64,0.00,,,0.00,Wunderground v.1.15,2013-02-05 23:50:00,
2013-02-05 19:00:00,45.6,34.1,30.08,North,11,0.0,6.0,64,0.00,,,0.00,Wunderground v.1.15,2013-02-06 00:00:00,
2013-02-05 19:05:00,45.5,34.4,30.08,North,11,0.0,6.0,65,0.00,,,0.00,Wunderground v.1.15,2013-02-06 00:05:00,
2013-02-05 19:15:00,45.4,34.3,30.09,NNE,12,1.0,2.0,65,0.00,,,0.00,Wunderground v.1.15,2013-02-06 00:15:00,
2013-02-05 19:20:00,45.3,34.2,30.09,NNE,14,2.0,4.0,65,0.00,,,0.00,Wunderground v.1.15,2013-02-06 00:20:00,
2013-02-05 19:25:00,45.3,34.2,30.09,NNE,14,2.0,4.0,65,0.00,,,0.00,Wunderground v.1.15,2013-02-06 00:25:00,
2013-02-05 19:30:00,45.2,34.5,30.10,NNE,14,1.0,1.0,66,0.00,,,0.00,Wunderground v.1.15,2013-02-06 00:30:00,
2013-02-05 19:35:00,45.0,34.3,30.09,NNE,14,0.0,3.0,66,0.00,,,0.00,Wunderground v.1.15,2013-02-06 00:35:00,
2013-02-05 19:45:00,45.0,34.7,30.09,NNE,14,0.0,3.0,67,0.00,,,0.00,Wunderground v.1.15,2013-02-06 00:45:00,
2013-02-05 19:50:00,44.9,34.6,30.09,NNE,14,0.0,3.0,67,0.00,,,0.00,Wunderground v.1.15,2013-02-06 00:50:00,
2013-02-05 20:00:00,44.4,34.5,30.10,NNE,14,0.0,3.0,68,0.00,,,0.00,Wunderground v.1.15,2013-02-06 01:00:00,
2013-02-05 20:05:00,44.3,34.4,30.10,NNE,14,0.0,3.0,68,0.00,,,0.00,Wunderground v.1.15,2013-02-06 01:05:00,
2013-02-05 20:15:00,44.2,34.7,30.10,NNE,14,0.0,2.0,69,0.00,,,0.00,Wunderground v.1.15,2013-02-06 01:15:00,
2013-02-05 20:20:00,44.0,34.5,30.10,NNE,14,0.0,2.0,69,0.00,,,0.00,Wunderground v.1.15,2013-02-06 01:20:00,
2013-02-05 20:25:00,43.8,34.3,30.10,NNE,14,0.0,2.0,69,0.00,,,0.00,Wunderground v.1.15,2013-02-06 01:25:00,
2013-02-05 20:35:00,43.6,34.1,30.10,NNE,14,0.0,2.0,69,0.00,,,0.00,Wunderground v.1.15,2013-02-06 01:35:00,
2013-02-05 20:40:00,43.7,33.8,30.11,NNE,14,0.0,2.0,68,0.00,,,0.00,Wunderground v.1.15,2013-02-06 01:40:00,
2013-02-05 20:50:00,43.5,34.0,30.11,NNE,14,0.0,2.0,69,0.00,,,0.00,Wunderground v.1.15,2013-02-06 01:50:00,
2013-02-05 20:55:00,43.2,33.7,30.12,NNE,14,0.0,2.0,69,0.00,,,0.00,Wunderground v.1.15,2013-02-06 01:55:00,
2013-02-05 21:00:00,43.1,33.6,30.12,NNE,14,0.0,2.0,69,0.00,,,0.00,Wunderground v.1.15,2013-02-06 02:00:00,
2013-02-05 21:05:00,43.0,33.9,30.11,NNE,14,0.0,2.0,70,0.00,,,0.00,Wunderground v.1.15,2013-02-06 02:05:00,
2013-02-05 21:15:00,43.1,34.0,30.12,NNE,14,0.0,2.0,70,0.00,,,0.00,Wunderground v.1.15,2013-02-06 02:15:00,
2013-02-05 21:20:00,43.1,34.0,30.12,NNE,14,0.0,0.0,70,0.00,,,0.00,Wunderground v.1.15,2013-02-06 02:20:00,
2013-02-05 21:25:00,43.1,34.0,30.11,NNE,14,0.0,0.0,70,0.00,,,0.00,Wunderground v.1.15,2013-02-06 02:25:00,
2013-02-05 21:30:00,43.2,34.1,30.11,NNE,14,0.0,0.0,70,0.00,,,0.00,Wunderground v.1.15,2013-02-06 02:30:00,
2013-02-05 21:35:00,43.2,34.1,30.12,NNE,14,0.0,0.0,70,0.00,,,0.00,Wunderground v.1.15,2013-02-06 02:35:00,
2013-02-05 21:40:00,43.2,33.7,30.12,NNE,14,0.0,0.0,69,0.00,,,0.00,Wunderground v.1.15,2013-02-06 02:40:00,
2013-02-05 21:50:00,43.1,33.6,30.12,NNE,14,0.0,0.0,69,0.00,,,0.00,Wunderground v.1.15,2013-02-06 02:50:00,
2013-02-05 21:55:00,43.0,33.9,30.13,NNE,14,0.0,0.0,70,0.00,,,0.00,Wunderground v.1.15,2013-02-06 02:55:00,
2013-02-05 22:00:00,42.9,33.4,30.12,NNE,14,0.0,0.0,69,0.00,,,0.00,Wunderground v.1.15,2013-02-06 03:00:00,
2013-02-05 22:05:00,42.8,33.3,30.13,NNE,14,0.0,0.0,69,0.00,,,0.00,Wunderground v.1.15,2013-02-06 03:05:00,
2013-02-05 22:15:00,42.5,33.0,30.13,NNE,14,0.0,0.0,69,0.00,,,0.00,Wunderground v.1.15,2013-02-06 03:15:00,
2013-02-05 22:20:00,42.3,32.8,30.13,NNE,14,0.0,0.0,69,0.00,,,0.00,Wunderground v.1.15,2013-02-06 03:20:00,
2013-02-05 22:25:00,42.1,33.0,30.13,NNE,14,0.0,0.0,70,0.00,,,0.00,Wunderground v.1.15,2013-02-06 03:25:00,
2013-02-05 22:30:00,41.7,32.6,30.13,NNE,14,0.0,0.0,70,0.00,,,0.00,Wunderground v.1.15,2013-02-06 03:30:00,
2013-02-05 22:40:00,41.8,33.1,30.13,NNE,14,0.0,0.0,71,0.00,,,0.00,Wunderground v.1.15,2013-02-06 03:40:00,
2013-02-05 22:45:00,41.7,32.6,30.13,NNE,14,0.0,1.0,70,0.00,,,0.00,Wunderground v.1.15,2013-02-06 03:45:00,
2013-02-05 22:55:00,41.6,32.5,30.13,NNE,14,0.0,0.0,70,0.00,,,0.00,Wunderground v.1.15,2013-02-06 03:55:00,
2013-02-05 23:00:00,41.5,32.1,30.13,NNE,14,0.0,0.0,69,0.00,,,0.00,Wunderground v.1.15,2013-02-06 04:00:00,
2013-02-05 23:05:00,41.8,32.4,30.13,NNE,14,0.0,0.0,69,0.00,,,0.00,Wunderground v.1.15,2013-02-06 04:05:00,
2013-02-05 23:15:00,42.5,32.3,30.13,NNE,14,0.0,1.0,67,0.00,,,0.00,Wunderground v.1.15,2013-02-06 04:15:00,
2013-02-05 23:20:00,42.7,32.1,30.13,NNE,14,0.0,1.0,66,0.00,,,0.00,Wunderground v.1.15,2013-02-06 04:20:00,
2013-02-05 23:30:00,42.9,32.3,30.13,NNE,14,0.0,1.0,66,0.00,,,0.00,Wunderground v.1.15,2013-02-06 04:30:00,
2013-02-05 23:35:00,42.9,32.3,30.13,NNE,14,0.0,1.0,66,0.00,,,0.00,Wunderground v.1.15,2013-02-06 04:35:00,
2013-02-05 23:40:00,43.0,32.4,30.13,NNE,14,0.0,1.0,66,0.00,,,0.00,Wunderground v.1.15,2013-02-06 04:40:00,
2013-02-05 23:45:00,42.9,32.3,30.13,NNE,14,0.0,1.0,66,0.00,,,0.00,Wunderground v.1.15,2013-02-06 04:45:00,
2013-02-05 23:55:00,42.7,32.9,30.14,North,351,0.0,1.0,68,0.00,,,0.00,Wunderground v.1.15,2013-02-06 04:55:00,